Time;durP1;ratioP1;P1;durP2;ratioP2;P2;SDS_P1;SDS_P2;PMS_P1;PMS_P2;Temp;Humidity;BMP_temperature;BMP_pressure;BME280_temperature;BME280_humidity;BME280_pressure;Samples;Min_cycle;Max_cycle;Signal;HPM_P1;HPM_P2
2022/01/24 05:01:31;;;;;;;7.18;6.32;;;6.00;99.90;;;;;;5453968;23;20718;-67
2022/01/24 05:03:58;;;;;;;8.43;7.63;;;6.00;99.90;;;;;;4982446;28;20695;-68
2022/01/24 05:06:25;;;;;;;8.43;7.50;;;6.00;99.90;;;;;;4979681;28;20212;-67
2022/01/24 05:08:52;;;;;;;9.15;6.97;;;6.00;99.90;;;;;;4974903;28;20252;-68
2022/01/24 05:11:24;;;;;;;9.88;6.75;;;6.00;99.90;;;;;;4975535;28;20651;-67
2022/01/24 05:25:00;;;;;;;8.45;6.80;;;6.00;99.90;;;;;;4981685;28;20279;-68
2022/01/24 05:27:27;;;;;;;7.68;5.90;;;6.00;99.90;;;;;;4993710;28;20204;-67
2022/01/24 05:29:53;;;;;;;7.88;6.63;;;6.00;99.90;;;;;;4993649;28;20266;-67
2022/01/24 05:32:21;;;;;;;6.88;6.22;;;6.00;99.90;;;;;;4994020;28;20228;-68
2022/01/24 05:34:48;;;;;;;9.48;8.02;;;6.00;99.90;;;;;;4984944;28;20200;-69
2022/01/24 05:37:17;;;;;;;11.40;7.88;;;6.00;99.90;;;;;;4992527;28;20231;-68
2022/01/24 05:39:44;;;;;;;11.10;7.20;;;6.00;99.90;;;;;;4986033;28;20212;-68
2022/01/24 05:42:11;;;;;;;8.85;7.70;;;6.00;99.90;;;;;;4989950;28;20265;-68
2022/01/24 05:44:37;;;;;;;8.07;7.18;;;5.90;99.90;;;;;;4987375;28;20232;-69
2022/01/24 05:47:04;;;;;;;10.15;7.55;;;5.90;99.90;;;;;;4989916;28;20204;-69
2022/01/24 05:49:32;;;;;;;8.50;7.63;;;6.00;99.90;;;;;;4988741;28;20271;-68
2022/01/24 05:51:59;;;;;;;10.73;7.72;;;5.90;99.90;;;;;;4987657;28;20256;-68
2022/01/24 05:54:26;;;;;;;10.80;6.72;;;5.90;99.90;;;;;;4988630;28;20208;-69
2022/01/24 05:56:52;;;;;;;9.40;7.03;;;5.90;99.90;;;;;;4974049;28;20267;-67
2022/01/24 05:59:19;;;;;;;7.93;7.13;;;5.90;99.90;;;;;;4983896;28;20208;-68
2022/01/24 06:01:46;;;;;;;8.73;7.68;;;5.90;99.90;;;;;;4986458;28;20598;-68
2022/01/24 06:04:12;;;;;;;10.57;7.43;;;5.90;99.90;;;;;;4992536;28;20279;-68
2022/01/24 06:06:40;;;;;;;11.23;8.82;;;5.90;99.90;;;;;;4991691;28;20204;-67
2022/01/24 06:09:07;;;;;;;10.57;7.40;;;5.90;99.90;;;;;;4987247;28;20259;-67
2022/01/24 06:11:34;;;;;;;11.55;8.20;;;5.80;99.90;;;;;;4985547;28;20228;-68
2022/01/24 06:14:02;;;;;;;9.63;7.60;;;5.90;99.90;;;;;;4993284;28;20203;-68
2022/01/24 06:16:29;;;;;;;11.38;7.95;;;5.80;99.90;;;;;;4978168;28;20278;-68
2022/01/24 06:18:56;;;;;;;13.52;8.10;;;5.80;99.90;;;;;;4992956;28;20215;-69
2022/01/24 06:21:22;;;;;;;10.20;8.18;;;5.80;99.90;;;;;;4991522;28;20294;-69
2022/01/24 06:23:50;;;;;;;10.57;7.70;;;5.80;99.90;;;;;;4993067;28;20247;-69
2022/01/24 06:26:17;;;;;;;12.75;8.88;;;5.80;99.90;;;;;;4992346;28;20204;-69
2022/01/24 06:28:44;;;;;;;12.50;8.25;;;5.80;99.90;;;;;;4993060;28;20196;-68
2022/01/24 06:31:10;;;;;;;9.45;8.10;;;5.80;99.90;;;;;;4986990;28;20278;-69
2022/01/24 06:33:37;;;;;;;11.55;7.65;;;5.80;99.90;;;;;;4992275;28;20835;-69
2022/01/24 06:36:04;;;;;;;12.02;7.90;;;5.80;99.90;;;;;;4981221;28;20272;-69
2022/01/24 06:38:31;;;;;;;11.70;8.90;;;5.80;99.90;;;;;;4973692;28;20208;-69
2022/01/24 06:40:59;;;;;;;10.77;8.10;;;5.80;99.90;;;;;;4991313;28;20327;-69
2022/01/24 06:43:26;;;;;;;24.65;12.23;;;5.80;99.90;;;;;;4982662;28;20200;-70
2022/01/24 06:45:52;;;;;;;12.52;9.02;;;5.80;99.90;;;;;;4988864;28;20258;-70
2022/01/24 06:48:19;;;;;;;14.38;9.23;;;5.80;99.90;;;;;;4991745;28;20200;-70
2022/01/24 06:50:46;;;;;;;10.63;9.38;;;5.80;99.90;;;;;;4989318;28;20220;-68
2022/01/24 06:53:13;;;;;;;10.88;7.93;;;5.80;99.90;;;;;;4986487;28;20296;-68
2022/01/24 06:55:39;;;;;;;10.57;8.20;;;5.80;99.90;;;;;;4988492;28;20274;-68
2022/01/24 06:58:07;;;;;;;14.90;8.13;;;5.80;99.90;;;;;;4991658;28;20727;-68
2022/01/24 07:00:34;;;;;;;10.05;8.52;;;5.80;99.90;;;;;;4989240;28;20317;-69
2022/01/24 07:03:02;;;;;;;11.77;9.82;;;5.80;99.90;;;;;;4987571;28;20645;-68
2022/01/24 07:05:29;;;;;;;14.77;7.68;;;5.80;99.90;;;;;;4986555;28;20223;-68
2022/01/24 07:07:59;;;;;;;12.10;8.23;;;5.80;99.90;;;;;;4981425;28;20200;-67
2022/01/24 07:10:27;;;;;;;14.10;9.13;;;5.80;99.90;;;;;;4983342;28;20239;-68
2022/01/24 07:12:54;;;;;;;10.68;7.38;;;5.80;99.90;;;;;;4972556;28;20291;-69
2022/01/24 07:15:30;;;;;;;11.45;8.00;;;5.70;99.90;;;;;;4983209;28;20207;-68
2022/01/24 07:18:13;;;;;;;12.52;9.25;;;5.70;99.90;;;;;;4981635;28;20212;-69
2022/01/24 07:20:40;;;;;;;14.13;8.70;;;5.70;99.90;;;;;;4991118;28;20610;-69
2022/01/24 07:23:07;;;;;;;12.27;8.65;;;5.80;99.90;;;;;;4991714;28;20275;-68
2022/01/24 07:25:34;;;;;;;15.15;9.70;;;5.80;99.90;;;;;;4990779;28;20220;-69
2022/01/24 07:28:00;;;;;;;10.93;9.32;;;5.70;99.90;;;;;;4992603;28;20212;-70
2022/01/24 07:30:28;;;;;;;15.93;9.45;;;5.80;99.90;;;;;;4991848;28;20196;-68
2022/01/24 07:32:55;;;;;;;13.40;10.23;;;5.80;99.90;;;;;;4979915;28;20711;-68
2022/01/24 07:35:22;;;;;;;16.42;10.60;;;5.80;99.90;;;;;;4987256;28;20258;-70
2022/01/24 07:37:48;;;;;;;11.38;9.02;;;5.80;99.90;;;;;;4988911;28;20200;-69
2022/01/24 07:40:15;;;;;;;11.20;9.00;;;5.80;99.90;;;;;;4983161;28;20200;-68
2022/01/24 07:42:54;;;;;;;11.05;8.43;;;5.80;99.90;;;;;;4988690;28;20212;-70
2022/01/24 07:45:23;;;;;;;11.43;9.13;;;5.80;99.90;;;;;;4991758;28;20637;-68
2022/01/24 07:47:51;;;;;;;12.60;8.38;;;5.80;99.90;;;;;;4990272;28;20680;-67
2022/01/24 07:50:20;;;;;;;12.65;9.18;;;5.80;99.90;;;;;;4990862;28;20213;-68
2022/01/24 07:52:47;;;;;;;11.90;8.50;;;5.80;99.90;;;;;;4990728;28;20208;-67
2022/01/24 07:55:14;;;;;;;13.32;9.52;;;5.80;99.90;;;;;;4991649;28;20278;-68
2022/01/24 07:57:41;;;;;;;10.75;8.40;;;5.80;99.90;;;;;;4981187;28;20250;-68
2022/01/24 08:00:10;;;;;;;12.52;9.35;;;5.80;99.90;;;;;;4990931;28;20314;-67
2022/01/24 08:02:37;;;;;;;11.52;8.95;;;5.80;99.90;;;;;;4980628;28;20200;-67
2022/01/24 08:05:06;;;;;;;10.40;8.52;;;5.80;99.90;;;;;;4991080;28;20258;-68
2022/01/24 08:07:33;;;;;;;14.00;9.10;;;5.80;99.90;;;;;;4990263;28;20811;-68
2022/01/24 08:09:59;;;;;;;13.88;8.73;;;5.80;99.90;;;;;;4990720;28;20561;-68
2022/01/24 08:12:26;;;;;;;12.30;8.70;;;5.80;99.90;;;;;;4990771;28;20224;-69
2022/01/24 08:14:53;;;;;;;12.80;8.93;;;5.80;99.90;;;;;;4990658;28;20290;-70
2022/01/24 08:17:20;;;;;;;10.10;8.05;;;5.80;99.90;;;;;;4990301;28;20207;-69
2022/01/24 08:19:47;;;;;;;13.13;9.00;;;5.90;99.90;;;;;;4984162;28;20215;-68
2022/01/24 08:22:15;;;;;;;11.32;7.80;;;5.90;99.90;;;;;;4990390;28;20278;-69
2022/01/24 08:24:41;;;;;;;11.02;8.43;;;5.90;99.90;;;;;;4979773;28;20578;-69
2022/01/24 08:27:08;;;;;;;11.55;8.93;;;5.80;99.90;;;;;;4971808;28;20200;-69
2022/01/24 08:29:35;;;;;;;11.38;8.27;;;5.90;99.90;;;;;;4980351;28;20250;-70
2022/01/24 08:32:02;;;;;;;14.05;9.05;;;5.90;99.90;;;;;;4990377;28;20231;-69
2022/01/24 08:34:28;;;;;;;11.82;8.48;;;5.90;99.90;;;;;;4990148;28;20250;-69
2022/01/24 08:36:55;;;;;;;11.95;8.02;;;5.90;99.90;;;;;;4990028;28;20208;-68
2022/01/24 08:39:23;;;;;;;9.77;8.43;;;5.90;99.90;;;;;;4977073;28;20212;-68
2022/01/24 08:42:01;;;;;;;12.90;8.70;;;5.90;99.90;;;;;;4972078;28;20283;-68
2022/01/24 08:45:43;;;;;;;13.43;9.63;;;5.90;99.90;;;;;;4985085;28;20295;-67
2022/01/24 08:47:22;;;;;;;11.35;8.98;;;5.90;99.90;;;;;;4989393;28;20691;-68
2022/01/24 08:49:49;;;;;;;11.85;7.80;;;5.90;99.90;;;;;;4986302;28;20644;-68
2022/01/24 08:52:15;;;;;;;11.18;8.68;;;5.90;99.90;;;;;;4989837;28;20711;-68
2022/01/24 08:54:44;;;;;;;11.77;8.55;;;6.00;99.90;;;;;;4979815;28;20262;-68
2022/01/24 08:57:13;;;;;;;11.73;8.15;;;6.00;99.90;;;;;;4981579;28;20273;-69
2022/01/24 08:59:40;;;;;;;12.15;8.55;;;6.00;99.90;;;;;;4990452;28;20226;-68
2022/01/24 09:02:07;;;;;;;10.10;8.88;;;6.00;99.90;;;;;;4981652;28;20596;-69
2022/01/24 09:04:35;;;;;;;12.50;9.63;;;6.00;99.90;;;;;;4973460;28;20224;-68
2022/01/24 09:07:05;;;;;;;15.00;10.10;;;6.00;99.90;;;;;;4976333;28;20227;-68
2022/01/24 09:09:34;;;;;;;14.15;10.18;;;6.00;99.90;;;;;;4970980;28;20216;-69
2022/01/24 09:12:04;;;;;;;12.50;9.32;;;6.00;99.90;;;;;;4978773;28;20788;-69
2022/01/24 09:14:30;;;;;;;13.20;9.93;;;6.00;99.90;;;;;;4989919;28;20234;-69
2022/01/24 09:16:57;;;;;;;15.95;10.57;;;6.00;99.90;;;;;;4983367;28;20286;-70
2022/01/24 09:19:24;;;;;;;11.80;8.85;;;6.10;99.90;;;;;;4975206;28;20267;-69
2022/01/24 09:21:51;;;;;;;11.40;8.95;;;6.00;99.90;;;;;;4989952;28;20224;-69
2022/01/24 09:24:17;;;;;;;9.88;8.68;;;6.10;99.90;;;;;;4990358;28;20688;-68
2022/01/24 09:26:44;;;;;;;10.80;8.15;;;6.00;99.90;;;;;;4990348;28;20307;-69
2022/01/24 09:29:12;;;;;;;13.95;9.43;;;6.10;99.90;;;;;;4992449;28;20576;-69
2022/01/24 09:31:39;;;;;;;10.07;8.95;;;6.10;99.90;;;;;;4989589;28;20676;-68
2022/01/24 09:34:06;;;;;;;11.20;9.43;;;6.10;99.90;;;;;;4975269;28;20267;-69
2022/01/24 09:36:33;;;;;;;11.98;8.90;;;6.10;99.90;;;;;;4980556;28;20259;-69
2022/01/24 09:38:59;;;;;;;11.20;8.02;;;6.10;99.90;;;;;;4994509;28;20223;-69
2022/01/24 09:41:26;;;;;;;12.35;9.82;;;6.10;99.90;;;;;;4991382;28;20227;-69
2022/01/24 09:43:53;;;;;;;9.75;7.80;;;6.10;99.90;;;;;;4993429;28;20210;-69
2022/01/24 09:46:21;;;;;;;11.73;8.93;;;6.10;99.90;;;;;;4990599;28;20711;-69
2022/01/24 09:48:49;;;;;;;13.02;10.05;;;6.10;99.90;;;;;;4983386;28;20209;-68
2022/01/24 09:51:15;;;;;;;13.55;9.05;;;6.20;99.90;;;;;;4991738;28;20227;-68
2022/01/24 09:53:42;;;;;;;13.25;8.40;;;6.10;99.90;;;;;;4985607;28;20203;-68
2022/01/24 09:56:09;;;;;;;16.05;10.75;;;6.20;99.90;;;;;;4985207;28;20196;-67
2022/01/24 09:58:37;;;;;;;15.40;9.75;;;6.20;99.90;;;;;;4986313;28;20259;-68
2022/01/24 10:01:07;;;;;;;11.40;8.70;;;6.20;99.90;;;;;;4992085;28;20232;-68
2022/01/24 10:03:35;;;;;;;13.45;9.63;;;6.20;99.90;;;;;;4989956;28;20665;-69
2022/01/24 10:06:03;;;;;;;11.13;8.13;;;6.20;99.90;;;;;;4989035;28;20227;-68
2022/01/24 10:08:30;;;;;;;23.20;17.77;;;6.20;99.90;;;;;;4993053;28;20659;-68
2022/01/24 10:11:00;;;;;;;13.07;9.88;;;6.20;99.90;;;;;;4992693;28;20294;-68
2022/01/24 10:16:25;;;;;;;12.70;10.77;;;6.20;99.90;;;;;;4982964;28;20249;-69
2022/01/24 10:19:16;;;;;;;12.35;9.40;;;6.20;99.90;;;;;;4992396;28;20220;-69
2022/01/24 10:21:44;;;;;;;10.75;9.63;;;6.20;99.90;;;;;;4992940;28;20278;-68
2022/01/24 10:24:13;;;;;;;15.27;10.07;;;6.20;99.90;;;;;;4988831;28;20201;-68
2022/01/24 10:26:40;;;;;;;12.30;9.38;;;6.30;99.90;;;;;;4973291;28;20233;-68
2022/01/24 10:29:12;;;;;;;14.68;10.07;;;6.30;99.90;;;;;;4982870;28;20816;-68
2022/01/24 10:31:46;;;;;;;12.75;9.55;;;6.30;99.90;;;;;;4991952;28;20230;-68
2022/01/24 10:34:18;;;;;;;10.00;8.25;;;6.30;99.90;;;;;;4989333;28;20206;-68
2022/01/24 10:36:46;;;;;;;11.75;9.30;;;6.30;99.90;;;;;;4972868;28;20657;-68
2022/01/24 10:39:29;;;;;;;12.82;10.23;;;6.40;99.90;;;;;;4991092;28;20200;-67
2022/01/24 10:42:30;;;;;;;14.90;9.63;;;6.40;99.90;;;;;;4992282;28;20239;-67
2022/01/24 10:44:59;;;;;;;13.85;9.43;;;6.40;99.90;;;;;;4974513;28;20207;-68
2022/01/24 10:47:29;;;;;;;20.85;9.82;;;6.40;99.90;;;;;;4987498;28;20227;-67
2022/01/24 10:49:59;;;;;;;10.25;8.10;;;6.40;99.90;;;;;;4986833;28;20214;-68
2022/01/24 10:52:27;;;;;;;10.10;8.55;;;6.40;99.90;;;;;;4984207;28;20215;-68
2022/01/24 10:55:11;;;;;;;12.88;10.23;;;6.50;99.90;;;;;;4987700;28;20207;-68
2022/01/24 10:57:40;;;;;;;12.38;8.35;;;6.40;99.90;;;;;;4992869;28;20238;-68
2022/01/24 11:00:09;;;;;;;12.68;9.30;;;6.40;99.90;;;;;;4991603;28;20291;-69
2022/01/24 11:02:40;;;;;;;12.00;9.63;;;6.40;99.90;;;;;;4991147;28;20236;-68
2022/01/24 11:05:13;;;;;;;12.25;8.50;;;6.40;99.90;;;;;;4988544;28;20207;-69
2022/01/24 11:07:54;;;;;;;29.83;10.60;;;6.40;99.90;;;;;;4980354;28;20686;-68
2022/01/24 11:10:22;;;;;;;11.20;9.02;;;6.40;99.90;;;;;;4981735;28;20203;-70
2022/01/24 11:12:49;;;;;;;26.50;10.00;;;6.40;99.90;;;;;;4990874;28;20208;-68
2022/01/24 11:15:16;;;;;;;16.10;9.57;;;6.40;99.90;;;;;;4984820;28;20406;-68
2022/01/24 11:17:44;;;;;;;13.70;8.70;;;6.40;99.90;;;;;;4980947;28;20571;-69
2022/01/24 11:20:15;;;;;;;11.13;7.88;;;6.40;99.90;;;;;;4990481;28;20583;-68
2022/01/24 11:22:45;;;;;;;11.10;8.02;;;6.40;99.90;;;;;;4990979;28;20661;-69
2022/01/24 11:25:13;;;;;;;12.43;9.35;;;6.40;99.90;;;;;;4988908;28;20204;-69
2022/01/24 11:27:41;;;;;;;14.55;10.38;;;6.40;99.90;;;;;;4994311;28;20215;-69
2022/01/24 11:30:12;;;;;;;12.02;8.70;;;6.40;99.90;;;;;;4990426;28;20235;-69
2022/01/24 11:32:46;;;;;;;13.38;10.57;;;6.40;99.90;;;;;;4990575;28;20224;-68
2022/01/24 11:35:14;;;;;;;12.10;8.20;;;6.40;99.90;;;;;;4990169;28;20295;-68
2022/01/24 11:37:43;;;;;;;13.40;8.98;;;6.40;99.90;;;;;;4991095;28;20603;-68
2022/01/24 11:40:13;;;;;;;14.02;10.02;;;6.40;99.90;;;;;;4990386;28;20200;-68
2022/01/24 11:42:41;;;;;;;13.07;8.85;;;6.40;99.90;;;;;;4988709;28;20200;-69
2022/01/24 11:45:13;;;;;;;12.80;9.07;;;6.40;99.90;;;;;;4990797;28;20204;-69
2022/01/24 11:47:42;;;;;;;13.52;9.10;;;6.40;99.90;;;;;;4980828;28;20615;-68
2022/01/24 11:50:37;;;;;;;12.60;8.98;;;6.40;99.90;;;;;;4990587;28;20204;-68
2022/01/24 11:53:21;;;;;;;14.38;10.05;;;6.40;99.90;;;;;;4987161;28;20212;-69
2022/01/24 11:55:47;;;;;;;13.77;9.18;;;6.40;99.90;;;;;;4983117;28;20514;-69
2022/01/24 11:58:23;;;;;;;13.65;8.65;;;6.40;99.90;;;;;;4990804;28;20200;-68
2022/01/24 12:00:51;;;;;;;13.18;8.95;;;6.30;99.90;;;;;;4981994;28;20234;-67
2022/01/24 12:03:20;;;;;;;11.75;7.75;;;6.40;99.90;;;;;;4985977;28;20224;-66
2022/01/24 12:05:51;;;;;;;13.65;8.18;;;6.40;99.90;;;;;;4989541;28;20211;-67
2022/01/24 12:08:30;;;;;;;13.95;9.15;;;6.40;99.90;;;;;;4991209;28;20310;-67
2022/01/24 12:11:12;;;;;;;12.77;7.75;;;6.40;99.90;;;;;;4988998;28;20250;-67
2022/01/24 12:13:42;;;;;;;11.57;8.35;;;6.40;99.90;;;;;;4990106;28;20231;-68
2022/01/24 12:16:10;;;;;;;12.45;8.80;;;6.40;99.90;;;;;;4990318;28;20200;-68
2022/01/24 12:19:02;;;;;;;11.88;7.80;;;6.40;99.90;;;;;;4989702;28;20679;-68
2022/01/24 12:21:33;;;;;;;16.83;9.70;;;6.40;99.90;;;;;;4982188;28;20220;-67
2022/01/24 12:24:03;;;;;;;12.63;7.95;;;6.30;99.90;;;;;;4992449;28;20626;-68
2022/01/24 12:26:35;;;;;;;14.90;8.82;;;6.30;99.90;;;;;;4986962;28;20216;-69
2022/01/24 12:29:06;;;;;;;9.65;7.00;;;6.30;99.90;;;;;;4980040;28;20274;-68
2022/01/24 12:31:37;;;;;;;16.27;8.93;;;6.40;99.90;;;;;;4990768;28;20290;-68
2022/01/24 12:34:13;;;;;;;10.50;8.38;;;6.30;99.90;;;;;;4992381;28;20192;-67
2022/01/24 12:37:00;;;;;;;14.00;9.93;;;6.30;99.90;;;;;;4976540;28;20744;-68
2022/01/24 12:39:33;;;;;;;13.18;9.65;;;6.30;99.90;;;;;;4989640;28;20302;-68
2022/01/24 12:42:06;;;;;;;15.82;11.20;;;6.20;99.90;;;;;;4991655;28;20227;-68
2022/01/24 12:47:22;;;;;;;13.05;9.40;;;6.20;99.90;;;;;;4990625;28;20712;-67
2022/01/24 12:49:50;;;;;;;16.65;10.18;;;6.20;99.90;;;;;;4988088;28;20286;-68
2022/01/24 12:52:21;;;;;;;13.95;9.98;;;6.20;99.90;;;;;;4970346;28;20387;-68
2022/01/24 12:54:50;;;;;;;16.42;10.32;;;6.30;99.90;;;;;;4980534;28;20274;-68
2022/01/24 12:57:19;;;;;;;14.02;9.15;;;6.20;99.90;;;;;;4971919;28;20606;-68
2022/01/24 12:59:56;;;;;;;14.32;9.77;;;6.30;99.90;;;;;;4968722;28;20248;-67
2022/01/24 13:02:28;;;;;;;13.82;8.68;;;6.20;99.90;;;;;;4968084;28;20240;-68
2022/01/24 13:05:02;;;;;;;15.80;9.00;;;6.30;99.90;;;;;;4976215;28;20270;-69
2022/01/24 13:07:31;;;;;;;14.88;9.60;;;6.30;99.90;;;;;;4972436;28;20235;-67
2022/01/24 13:10:23;;;;;;;14.25;8.70;;;6.30;99.90;;;;;;4973096;28;20585;-67
2022/01/24 13:12:59;;;;;;;19.10;9.50;;;6.20;99.90;;;;;;4972403;28;20212;-67
2022/01/24 13:20:26;;;;;;;12.27;9.00;;;6.30;99.90;;;;;;4990478;28;20211;-68
2022/01/24 13:21:16;;;;;;;11.75;8.55;;;6.20;99.90;;;;;;4987349;28;20310;-66
2022/01/24 13:23:51;;;;;;;12.38;8.75;;;6.20;99.90;;;;;;4982424;28;20751;-67
2022/01/24 13:26:17;;;;;;;13.63;8.68;;;6.20;99.90;;;;;;4982427;28;20282;-69
2022/01/24 13:28:44;;;;;;;10.57;8.27;;;6.20;99.90;;;;;;4980051;28;20259;-67
2022/01/24 13:31:12;;;;;;;10.75;8.13;;;6.20;99.90;;;;;;4979351;28;20278;-68
2022/01/24 13:33:43;;;;;;;12.95;9.20;;;6.20;99.90;;;;;;4975646;28;20328;-66
2022/01/24 13:36:10;;;;;;;13.73;8.57;;;6.30;99.90;;;;;;4981143;28;20282;-67
2022/01/24 13:38:42;;;;;;;13.63;9.13;;;6.30;99.90;;;;;;4990621;28;20215;-66
2022/01/24 13:41:12;;;;;;;26.88;16.13;;;6.30;99.90;;;;;;4992635;28;20276;-68
2022/01/24 13:43:41;;;;;;;10.57;7.60;;;6.30;99.90;;;;;;4993129;28;20198;-69
2022/01/24 13:46:10;;;;;;;13.30;9.43;;;6.30;99.90;;;;;;4985288;28;20581;-67
2022/01/24 13:48:45;;;;;;;12.55;8.05;;;6.30;99.90;;;;;;4991690;28;20276;-68
2022/01/24 13:51:14;;;;;;;11.18;7.90;;;6.30;99.90;;;;;;4983777;28;20586;-68
2022/01/24 13:53:43;;;;;;;8.27;6.47;;;6.20;99.90;;;;;;4973859;28;20674;-68
2022/01/24 13:56:21;;;;;;;13.23;8.82;;;6.30;99.90;;;;;;4991481;28;20196;-68
2022/01/24 13:59:12;;;;;;;10.30;7.05;;;6.30;99.90;;;;;;4992149;28;20211;-69
2022/01/24 14:01:51;;;;;;;10.35;7.80;;;6.30;99.90;;;;;;4972263;28;20295;-69
2022/01/24 14:04:28;;;;;;;7.97;7.18;;;6.30;99.90;;;;;;4983296;28;20667;-69
2022/01/24 14:06:57;;;;;;;8.98;7.05;;;6.30;99.90;;;;;;4982941;28;20255;-69
2022/01/24 14:09:33;;;;;;;15.52;8.10;;;6.30;99.90;;;;;;4974172;28;20204;-70
2022/01/24 14:12:03;;;;;;;9.75;8.25;;;6.30;99.90;;;;;;4985659;28;20224;-67
2022/01/24 14:14:39;;;;;;;9.40;8.05;;;6.30;99.90;;;;;;4974919;28;20216;-69
2022/01/24 14:17:19;;;;;;;13.68;7.90;;;6.30;99.90;;;;;;4976376;28;20200;-69
2022/01/24 14:19:55;;;;;;;13.02;8.10;;;6.30;99.90;;;;;;4971447;28;20224;-69
2022/01/24 14:22:22;;;;;;;9.55;7.68;;;6.30;99.90;;;;;;4971406;28;20247;-69
2022/01/24 14:24:51;;;;;;;11.80;8.23;;;6.30;99.90;;;;;;4982356;28;20265;-68
2022/01/24 14:27:40;;;;;;;10.00;7.97;;;6.30;99.90;;;;;;4981638;28;20274;-68
2022/01/24 14:30:11;;;;;;;15.77;7.88;;;6.20;99.90;;;;;;4970682;28;20212;-68
2022/01/24 14:32:39;;;;;;;8.98;7.30;;;6.20;99.90;;;;;;4987648;28;20258;-68
2022/01/24 14:35:07;;;;;;;14.40;9.23;;;6.20;99.90;;;;;;4987592;28;20207;-71
2022/01/24 14:37:51;;;;;;;11.57;8.15;;;6.20;99.90;;;;;;4986988;28;20287;-69
2022/01/24 14:40:48;;;;;;;8.60;7.45;;;6.20;99.90;;;;;;4989704;28;20230;-69
2022/01/24 14:46:07;;;;;;;10.45;7.15;;;6.20;99.90;;;;;;4982638;28;20302;-68
2022/01/24 14:48:42;;;;;;;8.65;6.55;;;6.20;99.90;;;;;;4970308;28;20265;-69
2022/01/24 14:51:09;;;;;;;8.18;7.10;;;6.20;99.90;;;;;;4970160;28;20232;-68
2022/01/24 14:53:36;;;;;;;7.97;7.18;;;6.20;99.90;;;;;;4980633;28;20208;-69
2022/01/24 14:56:03;;;;;;;12.30;11.00;;;6.20;99.90;;;;;;4975745;28;20216;-68
2022/01/24 14:58:31;;;;;;;10.95;9.85;;;6.20;99.90;;;;;;4971918;28;20224;-68
2022/01/24 15:00:58;;;;;;;12.40;8.73;;;6.20;99.90;;;;;;4982035;28;20239;-68
2022/01/24 15:03:24;;;;;;;10.70;7.80;;;6.20;99.90;;;;;;4987318;28;20200;-69
2022/01/24 15:05:51;;;;;;;8.27;7.30;;;6.20;99.90;;;;;;4975002;28;20208;-69
2022/01/24 15:08:18;;;;;;;13.70;8.45;;;6.20;99.90;;;;;;4982243;28;20231;-68
2022/01/24 15:10:44;;;;;;;7.15;6.45;;;6.20;99.90;;;;;;4982070;28;20224;-68
2022/01/24 15:13:12;;;;;;;11.40;7.57;;;6.30;99.90;;;;;;4980872;28;20212;-68
2022/01/24 15:15:50;;;;;;;9.48;7.30;;;6.30;99.90;;;;;;4973877;28;20271;-68
2022/01/24 15:24:11;;;;;;;10.18;6.40;;;6.20;99.90;;;;;;4987357;28;20641;-70
2022/01/24 15:26:38;;;;;;;10.75;7.55;;;6.20;99.90;;;;;;4986684;28;20698;-69
2022/01/24 15:29:05;;;;;;;9.73;6.97;;;6.20;99.90;;;;;;4989456;28;20560;-69
2022/01/24 15:31:33;;;;;;;8.52;7.15;;;6.20;99.90;;;;;;4982750;28;20223;-68
2022/01/24 15:34:00;;;;;;;11.43;8.18;;;6.20;99.90;;;;;;4990314;28;20612;-69
2022/01/24 15:36:27;;;;;;;8.68;7.63;;;6.20;99.90;;;;;;4990978;28;20208;-68
2022/01/24 15:38:57;;;;;;;8.48;7.45;;;6.20;99.90;;;;;;4986248;28;20204;-69
2022/01/24 15:41:24;;;;;;;18.67;10.10;;;6.20;99.90;;;;;;4990643;28;20247;-68
2022/01/24 15:44:03;;;;;;;9.63;8.07;;;6.20;99.90;;;;;;4983862;28;20319;-68
2022/01/24 15:49:18;;;;;;;10.93;7.75;;;6.20;99.90;;;;;;4970697;28;20758;-67
2022/01/24 15:51:45;;;;;;;10.23;7.97;;;6.20;99.90;;;;;;4983730;28;20228;-68
2022/01/24 15:54:17;;;;;;;10.02;7.03;;;6.20;99.90;;;;;;4978144;28;20204;-68
2022/01/24 15:59:27;;;;;;;11.35;8.30;;;6.20;99.90;;;;;;4985185;28;20211;-68
2022/01/24 16:01:54;;;;;;;8.25;7.43;;;6.10;99.90;;;;;;4988006;28;20228;-68
2022/01/24 16:04:22;;;;;;;9.32;7.28;;;6.20;99.90;;;;;;4981702;28;20259;-67
2022/01/24 16:06:49;;;;;;;13.48;8.60;;;6.20;99.90;;;;;;4986910;28;20235;-67
2022/01/24 16:09:15;;;;;;;11.55;9.88;;;6.10;99.90;;;;;;4982443;28;20893;-67
2022/01/24 16:11:42;;;;;;;14.82;11.05;;;6.10;99.90;;;;;;4976553;28;20230;-67
2022/01/24 16:14:09;;;;;;;11.02;9.48;;;6.20;99.90;;;;;;4980227;28;20216;-67
2022/01/24 16:16:37;;;;;;;13.05;11.55;;;6.10;99.90;;;;;;4972666;28;20725;-68
2022/01/24 16:19:05;;;;;;;14.00;10.40;;;6.10;99.90;;;;;;4980058;28;20204;-66
2022/01/24 16:21:41;;;;;;;13.70;9.27;;;6.10;99.90;;;;;;4985614;28;20708;-67
2022/01/24 16:26:55;;;;;;;8.93;7.90;;;6.10;99.90;;;;;;4973661;28;20681;-67
2022/01/24 16:29:21;;;;;;;12.13;9.20;;;6.10;99.90;;;;;;4990710;28;20207;-68
2022/01/24 16:31:48;;;;;;;8.65;6.75;;;6.10;99.90;;;;;;4989075;28;20228;-67
2022/01/24 16:34:16;;;;;;;11.02;7.85;;;6.10;99.90;;;;;;4983824;28;20200;-68
2022/01/24 16:36:45;;;;;;;13.45;8.52;;;6.10;99.90;;;;;;4971192;28;20208;-68
2022/01/24 16:39:16;;;;;;;11.77;7.57;;;6.10;99.90;;;;;;4986991;28;20200;-68
2022/01/24 16:41:50;;;;;;;11.15;8.43;;;6.10;99.90;;;;;;4993210;28;20226;-68
2022/01/24 16:44:33;;;;;;;11.50;8.40;;;6.10;99.90;;;;;;4993276;28;20622;-68
2022/01/24 16:47:06;;;;;;;13.20;9.38;;;6.10;99.90;;;;;;4974971;28;20399;-68
2022/01/24 16:49:35;;;;;;;14.30;9.82;;;6.10;99.90;;;;;;4993790;28;20349;-68
2022/01/24 16:52:05;;;;;;;16.90;11.50;;;6.10;99.90;;;;;;4991048;28;20232;-68
2022/01/24 16:54:32;;;;;;;22.63;15.15;;;6.10;99.90;;;;;;4992165;28;20624;-67
2022/01/24 16:56:59;;;;;;;16.63;12.48;;;6.10;99.90;;;;;;4990566;28;20255;-67
2022/01/24 16:59:26;;;;;;;19.25;12.95;;;6.10;99.90;;;;;;4987732;28;20223;-68
2022/01/24 17:01:54;;;;;;;17.67;13.07;;;6.10;99.90;;;;;;4993120;28;20235;-67
2022/01/24 17:04:21;;;;;;;26.95;13.65;;;6.10;99.90;;;;;;4981530;28;20200;-67
2022/01/24 17:06:50;;;;;;;24.85;14.38;;;6.00;99.90;;;;;;4972372;28;20342;-67
2022/01/24 17:09:18;;;;;;;25.77;14.18;;;6.00;99.90;;;;;;4986874;28;20212;-68
2022/01/24 17:11:47;;;;;;;22.05;14.90;;;6.00;99.90;;;;;;4990157;28;20263;-67
2022/01/24 17:14:16;;;;;;;26.08;16.02;;;6.00;99.90;;;;;;4979179;28;20212;-67
2022/01/24 17:16:45;;;;;;;26.45;15.75;;;6.00;99.90;;;;;;4980417;28;20310;-67
2022/01/24 17:19:13;;;;;;;28.63;15.75;;;5.90;99.90;;;;;;4990006;28;20212;-67
2022/01/24 17:21:40;;;;;;;32.25;16.02;;;5.90;99.90;;;;;;4992681;28;20592;-68
2022/01/24 17:24:08;;;;;;;28.23;16.52;;;5.90;99.90;;;;;;4991666;28;20596;-67
2022/01/24 17:26:38;;;;;;;32.15;17.30;;;5.90;99.90;;;;;;4993102;28;20204;-67
2022/01/24 17:29:05;;;;;;;33.40;17.10;;;5.90;99.90;;;;;;4992938;28;20311;-70
2022/01/24 17:31:32;;;;;;;33.53;14.90;;;5.90;99.90;;;;;;4994613;28;20223;-71
2022/01/24 17:33:59;;;;;;;36.38;17.80;;;5.90;99.90;;;;;;4992988;28;20350;-68
2022/01/24 17:36:25;;;;;;;40.65;19.52;;;5.90;99.90;;;;;;4988198;28;20201;-68
2022/01/24 17:38:52;;;;;;;32.55;16.73;;;5.90;99.90;;;;;;4985652;28;20200;-69
2022/01/24 17:41:19;;;;;;;38.13;18.05;;;5.90;99.90;;;;;;4986405;28;20290;-69
2022/01/24 17:43:47;;;;;;;34.25;18.27;;;5.80;99.90;;;;;;4989037;28;20788;-68
2022/01/24 17:46:14;;;;;;;37.08;18.25;;;5.90;99.90;;;;;;4983126;28;20265;-68
2022/01/24 17:48:40;;;;;;;33.05;18.42;;;5.80;99.90;;;;;;4991608;28;20298;-68
2022/01/24 17:51:07;;;;;;;31.67;18.20;;;5.80;99.90;;;;;;4986892;28;20231;-68
2022/01/24 17:53:34;;;;;;;37.80;19.52;;;5.80;99.90;;;;;;4984589;28;20212;-68
2022/01/24 17:56:01;;;;;;;30.73;18.08;;;5.90;99.90;;;;;;4990503;28;20266;-68
2022/01/24 17:58:29;;;;;;;32.60;17.20;;;5.80;99.90;;;;;;4981702;28;20208;-68
2022/01/24 18:00:57;;;;;;;29.63;18.33;;;5.80;99.90;;;;;;4970207;28;20676;-68
2022/01/24 18:03:24;;;;;;;36.42;20.42;;;5.90;99.90;;;;;;4985077;28;20204;-67
2022/01/24 18:05:54;;;;;;;37.00;19.90;;;5.80;99.90;;;;;;4972434;28;20751;-68
2022/01/24 18:08:22;;;;;;;37.00;19.17;;;5.80;99.90;;;;;;4985865;28;20238;-68
2022/01/24 18:10:49;;;;;;;37.95;19.40;;;5.80;99.90;;;;;;4984940;28;20628;-68
2022/01/24 18:13:15;;;;;;;32.67;18.83;;;5.80;99.90;;;;;;4988174;28;20231;-68
2022/01/24 18:15:42;;;;;;;39.65;20.98;;;5.80;99.90;;;;;;4989432;28;20220;-68
2022/01/24 18:18:10;;;;;;;38.63;20.70;;;5.70;99.90;;;;;;4985614;28;20204;-68
2022/01/24 18:20:37;;;;;;;37.33;21.60;;;5.80;99.90;;;;;;4988870;28;20900;-67
2022/01/24 18:23:05;;;;;;;39.25;21.38;;;5.80;99.90;;;;;;4980301;28;20208;-68
2022/01/24 18:25:32;;;;;;;48.20;22.27;;;5.80;99.90;;;;;;4969709;28;20275;-68
2022/01/24 18:27:58;;;;;;;39.33;20.27;;;5.70;99.90;;;;;;4973506;28;20248;-68
2022/01/24 18:30:25;;;;;;;46.33;22.08;;;5.70;99.90;;;;;;4988286;28;20310;-68
2022/01/24 18:32:52;;;;;;;38.33;18.80;;;5.70;99.90;;;;;;4988786;28;20208;-67
2022/01/24 18:35:20;;;;;;;43.50;20.10;;;5.70;99.90;;;;;;4988287;28;20204;-67